sensor_id;sensor_type;location;lat;lon;timestamp;temperature;humidity
3713;DHT22;1872;51.406;6.856;2023-04-07T00:01:43;8.30;99.90
3713;DHT22;1872;51.406;6.856;2023-04-07T00:04:09;8.30;99.90
3713;DHT22;1872;51.406;6.856;2023-04-07T00:06:34;8.30;99.90
3713;DHT22;1872;51.406;6.856;2023-04-07T00:09:00;8.20;99.90
3713;DHT22;1872;51.406;6.856;2023-04-07T00:11:26;8.20;99.90
3713;DHT22;1872;51.406;6.856;2023-04-07T00:13:52;8.20;99.90
3713;DHT22;1872;51.406;6.856;2023-04-07T00:16:17;8.20;99.90
3713;DHT22;1872;51.406;6.856;2023-04-07T00:18:43;8.20;99.90
3713;DHT22;1872;51.406;6.856;2023-04-07T00:21:11;8.20;99.90
3713;DHT22;1872;51.406;6.856;2023-04-07T00:23:37;8.20;99.90
3713;DHT22;1872;51.406;6.856;2023-04-07T00:26:02;8.20;99.90
3713;DHT22;1872;51.406;6.856;2023-04-07T00:28:28;8.20;99.90
3713;DHT22;1872;51.406;6.856;2023-04-07T00:30:54;8.30;99.90
3713;DHT22;1872;51.406;6.856;2023-04-07T00:33:20;8.30;99.90
3713;DHT22;1872;51.406;6.856;2023-04-07T00:35:46;8.30;99.90
3713;DHT22;1872;51.406;6.856;2023-04-07T00:38:11;8.30;99.90
3713;DHT22;1872;51.406;6.856;2023-04-07T00:40:37;8.30;99.90
3713;DHT22;1872;51.406;6.856;2023-04-07T00:43:03;8.30;99.90
3713;DHT22;1872;51.406;6.856;2023-04-07T00:45:31;8.30;99.90
3713;DHT22;1872;51.406;6.856;2023-04-07T00:47:57;8.30;99.90
3713;DHT22;1872;51.406;6.856;2023-04-07T00:50:23;8.30;99.90
3713;DHT22;1872;51.406;6.856;2023-04-07T00:52:49;8.30;99.90
3713;DHT22;1872;51.406;6.856;2023-04-07T00:55:15;8.30;99.90
3713;DHT22;1872;51.406;6.856;2023-04-07T00:57:41;8.30;99.90
3713;DHT22;1872;51.406;6.856;2023-04-07T01:00:09;8.30;99.90
3713;DHT22;1872;51.406;6.856;2023-04-07T01:02:44;8.30;99.90
3713;DHT22;1872;51.406;6.856;2023-04-07T01:05:15;8.40;99.90
3713;DHT22;1872;51.406;6.856;2023-04-07T01:08:07;8.40;99.90
3713;DHT22;1872;51.406;6.856;2023-04-07T01:10:59;8.40;99.90
3713;DHT22;1872;51.406;6.856;2023-04-07T01:13:33;8.40;99.90
3713;DHT22;1872;51.406;6.856;2023-04-07T01:16:04;8.40;99.90
3713;DHT22;1872;51.406;6.856;2023-04-07T01:18:34;8.50;99.90
3713;DHT22;1872;51.406;6.856;2023-04-07T01:21:06;8.50;99.90
3713;DHT22;1872;51.406;6.856;2023-04-07T01:26:28;8.50;99.90
3713;DHT22;1872;51.406;6.856;2023-04-07T01:31:30;8.50;99.90
3713;DHT22;1872;51.406;6.856;2023-04-07T01:33:57;8.50;99.90
3713;DHT22;1872;51.406;6.856;2023-04-07T01:36:24;8.50;99.90
3713;DHT22;1872;51.406;6.856;2023-04-07T01:38:53;8.60;99.90
3713;DHT22;1872;51.406;6.856;2023-04-07T01:41:21;8.60;99.90
3713;DHT22;1872;51.406;6.856;2023-04-07T01:43:48;8.60;99.90
3713;DHT22;1872;51.406;6.856;2023-04-07T01:46:14;8.70;99.90
3713;DHT22;1872;51.406;6.856;2023-04-07T01:48:41;8.70;99.90
3713;DHT22;1872;51.406;6.856;2023-04-07T01:51:07;8.70;99.90
3713;DHT22;1872;51.406;6.856;2023-04-07T01:53:37;8.70;99.90
3713;DHT22;1872;51.406;6.856;2023-04-07T01:56:04;8.70;99.90
3713;DHT22;1872;51.406;6.856;2023-04-07T01:58:30;8.70;99.90
3713;DHT22;1872;51.406;6.856;2023-04-07T02:00:56;8.70;99.90
3713;DHT22;1872;51.406;6.856;2023-04-07T02:03:39;8.70;99.90
3713;DHT22;1872;51.406;6.856;2023-04-07T02:06:07;8.70;99.90
3713;DHT22;1872;51.406;6.856;2023-04-07T02:08:35;8.70;99.90
3713;DHT22;1872;51.406;6.856;2023-04-07T02:11:03;8.70;99.90
3713;DHT22;1872;51.406;6.856;2023-04-07T02:13:30;8.80;99.90
3713;DHT22;1872;51.406;6.856;2023-04-07T02:15:57;8.80;99.90
3713;DHT22;1872;51.406;6.856;2023-04-07T02:18:24;8.80;99.90
3713;DHT22;1872;51.406;6.856;2023-04-07T02:20:52;8.80;99.90
3713;DHT22;1872;51.406;6.856;2023-04-07T02:23:18;8.90;99.90
3713;DHT22;1872;51.406;6.856;2023-04-07T02:25:44;8.90;99.90
3713;DHT22;1872;51.406;6.856;2023-04-07T02:28:09;8.90;99.90
3713;DHT22;1872;51.406;6.856;2023-04-07T02:30:35;9.00;99.90
3713;DHT22;1872;51.406;6.856;2023-04-07T02:33:01;9.00;99.90
3713;DHT22;1872;51.406;6.856;2023-04-07T02:35:27;9.00;99.90
3713;DHT22;1872;51.406;6.856;2023-04-07T02:37:52;9.00;99.90
3713;DHT22;1872;51.406;6.856;2023-04-07T02:40:18;9.00;99.90
3713;DHT22;1872;51.406;6.856;2023-04-07T02:42:45;9.00;99.90
3713;DHT22;1872;51.406;6.856;2023-04-07T02:45:11;9.00;99.90
3713;DHT22;1872;51.406;6.856;2023-04-07T02:47:37;9.00;99.90
3713;DHT22;1872;51.406;6.856;2023-04-07T02:50:04;9.00;99.90
3713;DHT22;1872;51.406;6.856;2023-04-07T02:52:29;9.00;99.90
3713;DHT22;1872;51.406;6.856;2023-04-07T02:54:55;9.00;99.90
3713;DHT22;1872;51.406;6.856;2023-04-07T02:57:21;9.10;99.90
3713;DHT22;1872;51.406;6.856;2023-04-07T02:59:47;9.10;99.90
3713;DHT22;1872;51.406;6.856;2023-04-07T03:02:12;9.00;99.90
3713;DHT22;1872;51.406;6.856;2023-04-07T03:04:38;9.00;99.90
3713;DHT22;1872;51.406;6.856;2023-04-07T03:07:04;9.10;99.90
3713;DHT22;1872;51.406;6.856;2023-04-07T03:09:29;9.10;99.90
3713;DHT22;1872;51.406;6.856;2023-04-07T03:11:55;9.10;99.90
3713;DHT22;1872;51.406;6.856;2023-04-07T03:14:21;9.10;99.90
3713;DHT22;1872;51.406;6.856;2023-04-07T03:16:46;9.10;99.90
3713;DHT22;1872;51.406;6.856;2023-04-07T03:19:12;9.10;99.90
3713;DHT22;1872;51.406;6.856;2023-04-07T03:21:38;9.10;99.90
3713;DHT22;1872;51.406;6.856;2023-04-07T03:24:07;9.10;99.90
3713;DHT22;1872;51.406;6.856;2023-04-07T03:26:33;9.10;99.90
3713;DHT22;1872;51.406;6.856;2023-04-07T03:28:58;9.10;99.90
3713;DHT22;1872;51.406;6.856;2023-04-07T03:31:24;9.10;99.90
3713;DHT22;1872;51.406;6.856;2023-04-07T03:33:50;9.10;99.90
3713;DHT22;1872;51.406;6.856;2023-04-07T03:36:16;9.20;99.90
3713;DHT22;1872;51.406;6.856;2023-04-07T03:38:43;9.10;99.90
3713;DHT22;1872;51.406;6.856;2023-04-07T03:41:11;9.10;99.90
3713;DHT22;1872;51.406;6.856;2023-04-07T03:43:37;9.10;99.90
3713;DHT22;1872;51.406;6.856;2023-04-07T03:46:02;9.10;99.90
3713;DHT22;1872;51.406;6.856;2023-04-07T03:48:28;9.10;99.90
3713;DHT22;1872;51.406;6.856;2023-04-07T03:50:53;9.10;99.90
3713;DHT22;1872;51.406;6.856;2023-04-07T03:53:19;9.10;99.90
3713;DHT22;1872;51.406;6.856;2023-04-07T03:55:45;9.10;99.90
3713;DHT22;1872;51.406;6.856;2023-04-07T03:58:11;9.10;99.90
3713;DHT22;1872;51.406;6.856;2023-04-07T04:00:38;9.10;99.90
3713;DHT22;1872;51.406;6.856;2023-04-07T04:03:03;9.10;99.90
3713;DHT22;1872;51.406;6.856;2023-04-07T04:05:30;9.10;99.90
3713;DHT22;1872;51.406;6.856;2023-04-07T04:07:56;9.10;99.90
3713;DHT22;1872;51.406;6.856;2023-04-07T04:10:22;9.10;99.90
3713;DHT22;1872;51.406;6.856;2023-04-07T04:12:48;9.10;99.90
3713;DHT22;1872;51.406;6.856;2023-04-07T04:15:14;9.10;99.90
3713;DHT22;1872;51.406;6.856;2023-04-07T04:17:40;9.10;99.90
3713;DHT22;1872;51.406;6.856;2023-04-07T04:20:07;9.10;99.90
3713;DHT22;1872;51.406;6.856;2023-04-07T04:22:33;9.10;99.90
3713;DHT22;1872;51.406;6.856;2023-04-07T04:24:59;9.20;99.90
3713;DHT22;1872;51.406;6.856;2023-04-07T04:27:25;9.10;99.90
3713;DHT22;1872;51.406;6.856;2023-04-07T04:29:51;9.10;99.90
3713;DHT22;1872;51.406;6.856;2023-04-07T04:32:18;9.10;99.90
3713;DHT22;1872;51.406;6.856;2023-04-07T04:34:44;9.10;99.90
3713;DHT22;1872;51.406;6.856;2023-04-07T04:37:10;9.10;99.90
3713;DHT22;1872;51.406;6.856;2023-04-07T04:39:36;9.10;99.90
3713;DHT22;1872;51.406;6.856;2023-04-07T04:42:02;9.10;99.90
3713;DHT22;1872;51.406;6.856;2023-04-07T04:44:28;9.10;99.90
3713;DHT22;1872;51.406;6.856;2023-04-07T04:46:55;9.00;99.90
3713;DHT22;1872;51.406;6.856;2023-04-07T04:49:21;9.00;99.90
3713;DHT22;1872;51.406;6.856;2023-04-07T04:51:46;9.00;99.90
3713;DHT22;1872;51.406;6.856;2023-04-07T04:54:12;9.00;99.90
3713;DHT22;1872;51.406;6.856;2023-04-07T04:56:38;9.00;99.90
3713;DHT22;1872;51.406;6.856;2023-04-07T04:59:03;9.00;99.90
3713;DHT22;1872;51.406;6.856;2023-04-07T05:01:29;9.00;99.90
3713;DHT22;1872;51.406;6.856;2023-04-07T05:03:55;9.00;99.90
3713;DHT22;1872;51.406;6.856;2023-04-07T05:06:21;9.00;99.90
3713;DHT22;1872;51.406;6.856;2023-04-07T05:08:46;9.00;99.90
3713;DHT22;1872;51.406;6.856;2023-04-07T05:11:12;9.00;99.90
3713;DHT22;1872;51.406;6.856;2023-04-07T05:13:38;9.00;99.90
3713;DHT22;1872;51.406;6.856;2023-04-07T05:16:04;9.00;99.90
3713;DHT22;1872;51.406;6.856;2023-04-07T05:18:30;9.00;99.90
3713;DHT22;1872;51.406;6.856;2023-04-07T05:20:56;9.00;99.90
3713;DHT22;1872;51.406;6.856;2023-04-07T05:23:22;9.00;99.90
3713;DHT22;1872;51.406;6.856;2023-04-07T05:25:47;9.00;99.90
3713;DHT22;1872;51.406;6.856;2023-04-07T05:28:13;9.00;99.90
3713;DHT22;1872;51.406;6.856;2023-04-07T05:30:38;9.00;99.90
3713;DHT22;1872;51.406;6.856;2023-04-07T05:33:04;9.00;99.90
3713;DHT22;1872;51.406;6.856;2023-04-07T05:35:30;8.90;99.90
3713;DHT22;1872;51.406;6.856;2023-04-07T05:37:55;9.00;99.90
3713;DHT22;1872;51.406;6.856;2023-04-07T05:40:21;8.90;99.90
3713;DHT22;1872;51.406;6.856;2023-04-07T05:42:47;8.90;99.90
3713;DHT22;1872;51.406;6.856;2023-04-07T05:45:13;8.90;99.90
3713;DHT22;1872;51.406;6.856;2023-04-07T05:47:38;8.90;99.90
3713;DHT22;1872;51.406;6.856;2023-04-07T05:50:05;9.00;99.90
3713;DHT22;1872;51.406;6.856;2023-04-07T05:52:31;8.90;99.90
3713;DHT22;1872;51.406;6.856;2023-04-07T05:54:57;8.90;99.90
3713;DHT22;1872;51.406;6.856;2023-04-07T05:57:22;8.90;99.90
3713;DHT22;1872;51.406;6.856;2023-04-07T05:59:48;9.00;99.90
3713;DHT22;1872;51.406;6.856;2023-04-07T06:02:14;9.00;99.90
3713;DHT22;1872;51.406;6.856;2023-04-07T06:04:39;8.90;99.90
3713;DHT22;1872;51.406;6.856;2023-04-07T06:07:06;9.00;99.90
3713;DHT22;1872;51.406;6.856;2023-04-07T06:09:31;8.90;99.90
3713;DHT22;1872;51.406;6.856;2023-04-07T06:11:57;9.00;99.90
3713;DHT22;1872;51.406;6.856;2023-04-07T06:14:23;9.00;99.90
3713;DHT22;1872;51.406;6.856;2023-04-07T06:16:49;9.00;99.90
3713;DHT22;1872;51.406;6.856;2023-04-07T06:19:14;9.00;99.90
3713;DHT22;1872;51.406;6.856;2023-04-07T06:21:40;9.00;99.90
3713;DHT22;1872;51.406;6.856;2023-04-07T06:24:06;9.00;99.90
3713;DHT22;1872;51.406;6.856;2023-04-07T06:26:34;9.00;99.90
3713;DHT22;1872;51.406;6.856;2023-04-07T06:29:00;9.10;99.90
3713;DHT22;1872;51.406;6.856;2023-04-07T06:31:26;9.10;99.90
3713;DHT22;1872;51.406;6.856;2023-04-07T06:33:52;9.00;99.90
3713;DHT22;1872;51.406;6.856;2023-04-07T06:36:20;9.10;99.90
3713;DHT22;1872;51.406;6.856;2023-04-07T06:38:46;9.10;99.90
3713;DHT22;1872;51.406;6.856;2023-04-07T06:41:11;9.10;99.90
3713;DHT22;1872;51.406;6.856;2023-04-07T06:43:46;9.10;99.90
3713;DHT22;1872;51.406;6.856;2023-04-07T06:46:11;9.10;99.90
3713;DHT22;1872;51.406;6.856;2023-04-07T06:48:37;9.10;99.90
3713;DHT22;1872;51.406;6.856;2023-04-07T06:51:03;9.10;99.90
3713;DHT22;1872;51.406;6.856;2023-04-07T06:53:28;9.10;99.90
3713;DHT22;1872;51.406;6.856;2023-04-07T06:56:08;9.10;99.90
3713;DHT22;1872;51.406;6.856;2023-04-07T06:58:34;9.10;99.90
3713;DHT22;1872;51.406;6.856;2023-04-07T07:01:04;9.10;99.90
3713;DHT22;1872;51.406;6.856;2023-04-07T07:03:31;9.10;99.90
3713;DHT22;1872;51.406;6.856;2023-04-07T07:05:58;9.10;99.90
3713;DHT22;1872;51.406;6.856;2023-04-07T07:08:25;9.10;99.90
3713;DHT22;1872;51.406;6.856;2023-04-07T07:10:51;9.20;99.90
3713;DHT22;1872;51.406;6.856;2023-04-07T07:13:23;9.20;99.90
3713;DHT22;1872;51.406;6.856;2023-04-07T07:15:49;9.20;99.90
3713;DHT22;1872;51.406;6.856;2023-04-07T07:18:16;9.20;99.90
3713;DHT22;1872;51.406;6.856;2023-04-07T07:20:42;9.20;99.90
3713;DHT22;1872;51.406;6.856;2023-04-07T07:23:07;9.20;99.90
3713;DHT22;1872;51.406;6.856;2023-04-07T07:25:33;9.20;99.90
3713;DHT22;1872;51.406;6.856;2023-04-07T07:27:58;9.30;99.90
3713;DHT22;1872;51.406;6.856;2023-04-07T07:30:24;9.30;99.90
3713;DHT22;1872;51.406;6.856;2023-04-07T07:32:51;9.30;99.90
3713;DHT22;1872;51.406;6.856;2023-04-07T07:35:18;9.40;99.90
3713;DHT22;1872;51.406;6.856;2023-04-07T07:37:44;9.40;99.90
3713;DHT22;1872;51.406;6.856;2023-04-07T07:40:10;9.40;99.90
3713;DHT22;1872;51.406;6.856;2023-04-07T07:42:36;9.40;99.90
3713;DHT22;1872;51.406;6.856;2023-04-07T07:45:02;9.50;99.90
3713;DHT22;1872;51.406;6.856;2023-04-07T07:47:28;9.50;99.90
3713;DHT22;1872;51.406;6.856;2023-04-07T07:49:53;9.50;99.90
3713;DHT22;1872;51.406;6.856;2023-04-07T07:52:19;9.50;99.90
3713;DHT22;1872;51.406;6.856;2023-04-07T07:54:46;9.50;99.90
3713;DHT22;1872;51.406;6.856;2023-04-07T07:57:12;9.50;99.90
3713;DHT22;1872;51.406;6.856;2023-04-07T07:59:38;9.60;99.90
3713;DHT22;1872;51.406;6.856;2023-04-07T08:02:06;9.50;99.90
3713;DHT22;1872;51.406;6.856;2023-04-07T08:04:31;9.50;99.90
3713;DHT22;1872;51.406;6.856;2023-04-07T08:06:57;9.60;99.90
3713;DHT22;1872;51.406;6.856;2023-04-07T08:09:24;9.60;99.90
3713;DHT22;1872;51.406;6.856;2023-04-07T08:11:50;9.60;99.90
3713;DHT22;1872;51.406;6.856;2023-04-07T08:14:17;9.60;99.90
3713;DHT22;1872;51.406;6.856;2023-04-07T08:16:45;9.60;99.90
3713;DHT22;1872;51.406;6.856;2023-04-07T08:19:11;9.60;99.90
3713;DHT22;1872;51.406;6.856;2023-04-07T08:21:38;9.60;99.90
3713;DHT22;1872;51.406;6.856;2023-04-07T08:24:04;9.60;99.90
3713;DHT22;1872;51.406;6.856;2023-04-07T08:26:30;9.50;99.90
3713;DHT22;1872;51.406;6.856;2023-04-07T08:28:56;9.50;99.90
3713;DHT22;1872;51.406;6.856;2023-04-07T08:31:23;9.60;99.90
3713;DHT22;1872;51.406;6.856;2023-04-07T08:33:48;9.60;99.90
3713;DHT22;1872;51.406;6.856;2023-04-07T08:36:19;9.60;99.90
3713;DHT22;1872;51.406;6.856;2023-04-07T08:38:44;9.60;99.90
3713;DHT22;1872;51.406;6.856;2023-04-07T08:41:12;9.60;99.90
3713;DHT22;1872;51.406;6.856;2023-04-07T08:43:38;9.60;99.90
3713;DHT22;1872;51.406;6.856;2023-04-07T08:46:08;9.70;99.90
3713;DHT22;1872;51.406;6.856;2023-04-07T08:48:37;9.70;99.90
3713;DHT22;1872;51.406;6.856;2023-04-07T08:51:06;9.70;99.90
3713;DHT22;1872;51.406;6.856;2023-04-07T08:53:48;9.70;99.90
3713;DHT22;1872;51.406;6.856;2023-04-07T08:56:17;9.70;99.90
3713;DHT22;1872;51.406;6.856;2023-04-07T08:58:45;9.80;99.90
3713;DHT22;1872;51.406;6.856;2023-04-07T09:01:11;9.80;99.90
3713;DHT22;1872;51.406;6.856;2023-04-07T09:03:37;9.80;99.90
3713;DHT22;1872;51.406;6.856;2023-04-07T09:06:03;9.80;99.90
3713;DHT22;1872;51.406;6.856;2023-04-07T09:08:29;9.80;99.90
3713;DHT22;1872;51.406;6.856;2023-04-07T09:10:56;9.70;99.90
3713;DHT22;1872;51.406;6.856;2023-04-07T09:13:23;9.70;99.90
3713;DHT22;1872;51.406;6.856;2023-04-07T09:15:49;9.70;99.90
3713;DHT22;1872;51.406;6.856;2023-04-07T09:18:15;9.70;99.90
3713;DHT22;1872;51.406;6.856;2023-04-07T09:21:01;9.70;99.90
3713;DHT22;1872;51.406;6.856;2023-04-07T09:23:38;9.70;99.90
3713;DHT22;1872;51.406;6.856;2023-04-07T09:26:26;9.70;99.90
3713;DHT22;1872;51.406;6.856;2023-04-07T09:29:00;9.70;99.90
3713;DHT22;1872;51.406;6.856;2023-04-07T09:32:03;9.70;99.90
3713;DHT22;1872;51.406;6.856;2023-04-07T09:34:31;9.70;99.90
3713;DHT22;1872;51.406;6.856;2023-04-07T09:36:57;9.70;99.90
3713;DHT22;1872;51.406;6.856;2023-04-07T09:39:23;9.70;99.90
3713;DHT22;1872;51.406;6.856;2023-04-07T09:41:49;9.70;99.90
3713;DHT22;1872;51.406;6.856;2023-04-07T09:44:15;9.70;99.90
3713;DHT22;1872;51.406;6.856;2023-04-07T09:46:53;9.70;99.90
3713;DHT22;1872;51.406;6.856;2023-04-07T09:49:20;9.70;99.90
3713;DHT22;1872;51.406;6.856;2023-04-07T09:54:40;9.80;99.90
3713;DHT22;1872;51.406;6.856;2023-04-07T09:57:08;9.80;99.90
3713;DHT22;1872;51.406;6.856;2023-04-07T09:59:36;9.90;99.90
3713;DHT22;1872;51.406;6.856;2023-04-07T10:02:02;9.90;99.90
3713;DHT22;1872;51.406;6.856;2023-04-07T10:04:28;10.00;99.90
3713;DHT22;1872;51.406;6.856;2023-04-07T10:06:55;10.00;99.90
3713;DHT22;1872;51.406;6.856;2023-04-07T10:09:26;10.00;99.90
3713;DHT22;1872;51.406;6.856;2023-04-07T10:11:53;10.10;99.90
3713;DHT22;1872;51.406;6.856;2023-04-07T10:14:20;10.10;99.90
3713;DHT22;1872;51.406;6.856;2023-04-07T10:16:47;10.10;99.90
3713;DHT22;1872;51.406;6.856;2023-04-07T10:19:13;10.10;99.90
3713;DHT22;1872;51.406;6.856;2023-04-07T10:21:42;10.20;99.90
3713;DHT22;1872;51.406;6.856;2023-04-07T10:26:46;10.10;99.90
3713;DHT22;1872;51.406;6.856;2023-04-07T10:29:15;10.10;99.90
3713;DHT22;1872;51.406;6.856;2023-04-07T10:31:42;10.10;99.90
3713;DHT22;1872;51.406;6.856;2023-04-07T10:34:09;10.10;99.90
3713;DHT22;1872;51.406;6.856;2023-04-07T10:36:34;10.00;99.90
3713;DHT22;1872;51.406;6.856;2023-04-07T10:44:05;10.10;99.90
3713;DHT22;1872;51.406;6.856;2023-04-07T10:49:25;10.20;99.90
3713;DHT22;1872;51.406;6.856;2023-04-07T10:54:36;10.20;99.90
3713;DHT22;1872;51.406;6.856;2023-04-07T10:59:28;10.20;99.90
3713;DHT22;1872;51.406;6.856;2023-04-07T11:04:45;10.20;99.90
3713;DHT22;1872;51.406;6.856;2023-04-07T11:07:13;10.20;99.90
3713;DHT22;1872;51.406;6.856;2023-04-07T11:09:42;10.20;99.90
3713;DHT22;1872;51.406;6.856;2023-04-07T11:12:08;10.20;99.90
3713;DHT22;1872;51.406;6.856;2023-04-07T11:14:33;10.20;99.90
3713;DHT22;1872;51.406;6.856;2023-04-07T11:17:02;10.20;99.90
3713;DHT22;1872;51.406;6.856;2023-04-07T11:19:29;10.30;99.90
3713;DHT22;1872;51.406;6.856;2023-04-07T11:22:16;10.30;99.90
3713;DHT22;1872;51.406;6.856;2023-04-07T11:24:41;10.40;99.90
3713;DHT22;1872;51.406;6.856;2023-04-07T11:27:14;10.40;99.90
3713;DHT22;1872;51.406;6.856;2023-04-07T11:29:41;10.40;99.90
3713;DHT22;1872;51.406;6.856;2023-04-07T11:32:06;10.50;99.90
3713;DHT22;1872;51.406;6.856;2023-04-07T11:34:34;10.50;99.90
3713;DHT22;1872;51.406;6.856;2023-04-07T11:37:24;10.50;99.90
3713;DHT22;1872;51.406;6.856;2023-04-07T11:39:59;10.60;99.90
3713;DHT22;1872;51.406;6.856;2023-04-07T11:42:35;10.60;99.90
3713;DHT22;1872;51.406;6.856;2023-04-07T11:45:01;10.70;99.90
3713;DHT22;1872;51.406;6.856;2023-04-07T11:47:38;10.70;99.90
3713;DHT22;1872;51.406;6.856;2023-04-07T11:50:05;10.80;99.90
3713;DHT22;1872;51.406;6.856;2023-04-07T11:52:44;10.80;99.90
3713;DHT22;1872;51.406;6.856;2023-04-07T11:55:21;10.90;99.90
3713;DHT22;1872;51.406;6.856;2023-04-07T11:57:49;10.90;99.90
3713;DHT22;1872;51.406;6.856;2023-04-07T12:00:18;10.90;99.90
3713;DHT22;1872;51.406;6.856;2023-04-07T12:02:45;10.90;99.90
3713;DHT22;1872;51.406;6.856;2023-04-07T12:05:11;10.90;99.90
3713;DHT22;1872;51.406;6.856;2023-04-07T12:07:38;10.80;99.90
3713;DHT22;1872;51.406;6.856;2023-04-07T12:10:21;10.80;99.90
3713;DHT22;1872;51.406;6.856;2023-04-07T12:12:48;10.80;99.90
3713;DHT22;1872;51.406;6.856;2023-04-07T12:15:14;10.80;99.90
3713;DHT22;1872;51.406;6.856;2023-04-07T12:17:44;10.70;99.90
3713;DHT22;1872;51.406;6.856;2023-04-07T12:20:12;10.70;99.90
3713;DHT22;1872;51.406;6.856;2023-04-07T12:22:38;10.70;99.90
3713;DHT22;1872;51.406;6.856;2023-04-07T12:25:04;10.70;99.90
3713;DHT22;1872;51.406;6.856;2023-04-07T12:27:30;10.70;99.90
3713;DHT22;1872;51.406;6.856;2023-04-07T12:29:56;10.70;99.90
3713;DHT22;1872;51.406;6.856;2023-04-07T12:32:21;10.70;99.90
3713;DHT22;1872;51.406;6.856;2023-04-07T12:34:47;10.80;99.90
3713;DHT22;1872;51.406;6.856;2023-04-07T12:37:15;10.80;99.90
3713;DHT22;1872;51.406;6.856;2023-04-07T12:39:41;10.90;99.90
3713;DHT22;1872;51.406;6.856;2023-04-07T12:42:07;10.90;99.90
3713;DHT22;1872;51.406;6.856;2023-04-07T12:44:37;11.00;99.90
3713;DHT22;1872;51.406;6.856;2023-04-07T12:47:02;11.00;99.90
3713;DHT22;1872;51.406;6.856;2023-04-07T12:49:28;11.10;99.90
3713;DHT22;1872;51.406;6.856;2023-04-07T12:51:54;11.10;99.90
3713;DHT22;1872;51.406;6.856;2023-04-07T12:54:20;11.10;99.90
3713;DHT22;1872;51.406;6.856;2023-04-07T12:56:46;11.10;99.90
3713;DHT22;1872;51.406;6.856;2023-04-07T12:59:12;11.10;99.90
3713;DHT22;1872;51.406;6.856;2023-04-07T13:01:39;11.10;99.90
3713;DHT22;1872;51.406;6.856;2023-04-07T13:04:05;11.10;99.90
3713;DHT22;1872;51.406;6.856;2023-04-07T13:06:31;11.10;99.90
3713;DHT22;1872;51.406;6.856;2023-04-07T13:08:57;11.20;99.90
3713;DHT22;1872;51.406;6.856;2023-04-07T13:11:22;11.10;99.90
3713;DHT22;1872;51.406;6.856;2023-04-07T13:13:48;11.10;99.90
3713;DHT22;1872;51.406;6.856;2023-04-07T13:16:14;11.20;99.90
3713;DHT22;1872;51.406;6.856;2023-04-07T13:18:39;11.20;99.90
3713;DHT22;1872;51.406;6.856;2023-04-07T13:21:05;11.30;99.90
3713;DHT22;1872;51.406;6.856;2023-04-07T13:23:31;11.30;99.90
3713;DHT22;1872;51.406;6.856;2023-04-07T13:25:56;11.40;99.90
3713;DHT22;1872;51.406;6.856;2023-04-07T13:28:22;11.40;99.90
3713;DHT22;1872;51.406;6.856;2023-04-07T13:30:48;11.50;99.90
3713;DHT22;1872;51.406;6.856;2023-04-07T13:33:13;11.60;99.90
3713;DHT22;1872;51.406;6.856;2023-04-07T13:35:39;11.70;99.90
3713;DHT22;1872;51.406;6.856;2023-04-07T13:38:05;11.70;99.90
3713;DHT22;1872;51.406;6.856;2023-04-07T13:40:31;11.80;99.90
3713;DHT22;1872;51.406;6.856;2023-04-07T13:42:57;11.80;99.90
3713;DHT22;1872;51.406;6.856;2023-04-07T13:45:23;11.80;99.90
3713;DHT22;1872;51.406;6.856;2023-04-07T13:47:49;11.80;99.90
3713;DHT22;1872;51.406;6.856;2023-04-07T13:50:17;11.90;99.90
3713;DHT22;1872;51.406;6.856;2023-04-07T13:52:43;11.90;99.90
3713;DHT22;1872;51.406;6.856;2023-04-07T13:55:09;11.80;99.90
3713;DHT22;1872;51.406;6.856;2023-04-07T13:57:35;11.70;99.90
3713;DHT22;1872;51.406;6.856;2023-04-07T14:00:00;11.60;99.90
3713;DHT22;1872;51.406;6.856;2023-04-07T14:02:26;11.60;99.90
3713;DHT22;1872;51.406;6.856;2023-04-07T14:04:53;11.50;99.90
3713;DHT22;1872;51.406;6.856;2023-04-07T14:07:19;11.40;99.90
3713;DHT22;1872;51.406;6.856;2023-04-07T14:09:46;11.30;99.90
3713;DHT22;1872;51.406;6.856;2023-04-07T14:12:14;11.30;99.90
3713;DHT22;1872;51.406;6.856;2023-04-07T14:14:40;11.20;99.90
3713;DHT22;1872;51.406;6.856;2023-04-07T14:17:06;11.20;99.90
3713;DHT22;1872;51.406;6.856;2023-04-07T14:19:32;11.20;99.90
3713;DHT22;1872;51.406;6.856;2023-04-07T14:22:00;11.10;99.90
3713;DHT22;1872;51.406;6.856;2023-04-07T14:24:26;11.10;99.90
3713;DHT22;1872;51.406;6.856;2023-04-07T14:26:52;11.10;99.90
3713;DHT22;1872;51.406;6.856;2023-04-07T14:29:19;11.00;99.90
3713;DHT22;1872;51.406;6.856;2023-04-07T14:31:45;10.90;99.90
3713;DHT22;1872;51.406;6.856;2023-04-07T14:34:13;10.90;99.90
3713;DHT22;1872;51.406;6.856;2023-04-07T14:36:39;10.80;99.90
3713;DHT22;1872;51.406;6.856;2023-04-07T14:39:04;10.80;99.90
3713;DHT22;1872;51.406;6.856;2023-04-07T14:41:30;10.70;99.90
3713;DHT22;1872;51.406;6.856;2023-04-07T14:43:56;10.70;99.90
3713;DHT22;1872;51.406;6.856;2023-04-07T14:46:22;10.60;99.90
3713;DHT22;1872;51.406;6.856;2023-04-07T14:48:48;10.50;99.90
3713;DHT22;1872;51.406;6.856;2023-04-07T14:51:17;10.50;99.90
3713;DHT22;1872;51.406;6.856;2023-04-07T14:53:42;10.40;99.90
3713;DHT22;1872;51.406;6.856;2023-04-07T14:56:10;10.40;99.90
3713;DHT22;1872;51.406;6.856;2023-04-07T14:58:36;10.40;99.90
3713;DHT22;1872;51.406;6.856;2023-04-07T15:01:04;10.30;99.90
3713;DHT22;1872;51.406;6.856;2023-04-07T15:03:30;10.30;99.90
3713;DHT22;1872;51.406;6.856;2023-04-07T15:05:55;10.40;99.90
3713;DHT22;1872;51.406;6.856;2023-04-07T15:08:22;10.40;99.90
3713;DHT22;1872;51.406;6.856;2023-04-07T15:10:48;10.40;99.90
3713;DHT22;1872;51.406;6.856;2023-04-07T15:13:13;10.40;99.90
3713;DHT22;1872;51.406;6.856;2023-04-07T15:15:40;10.40;99.90
3713;DHT22;1872;51.406;6.856;2023-04-07T15:18:05;10.40;99.90
3713;DHT22;1872;51.406;6.856;2023-04-07T15:20:31;10.40;99.90
3713;DHT22;1872;51.406;6.856;2023-04-07T15:22:57;10.30;99.90
3713;DHT22;1872;51.406;6.856;2023-04-07T15:25:32;10.30;99.90
3713;DHT22;1872;51.406;6.856;2023-04-07T15:27:58;10.30;99.90
3713;DHT22;1872;51.406;6.856;2023-04-07T15:30:25;10.30;99.90
3713;DHT22;1872;51.406;6.856;2023-04-07T15:33:11;10.30;99.90
3713;DHT22;1872;51.406;6.856;2023-04-07T15:35:37;10.30;99.90
3713;DHT22;1872;51.406;6.856;2023-04-07T15:38:02;10.20;99.90
3713;DHT22;1872;51.406;6.856;2023-04-07T15:40:28;10.20;99.90
3713;DHT22;1872;51.406;6.856;2023-04-07T15:42:54;10.20;99.90
3713;DHT22;1872;51.406;6.856;2023-04-07T15:45:19;10.20;99.90
3713;DHT22;1872;51.406;6.856;2023-04-07T15:47:47;10.20;99.90
3713;DHT22;1872;51.406;6.856;2023-04-07T15:50:13;10.20;99.90
3713;DHT22;1872;51.406;6.856;2023-04-07T15:52:39;10.30;99.90
3713;DHT22;1872;51.406;6.856;2023-04-07T15:55:04;10.30;99.90
3713;DHT22;1872;51.406;6.856;2023-04-07T15:57:30;10.30;99.90
3713;DHT22;1872;51.406;6.856;2023-04-07T15:59:56;10.20;99.90
3713;DHT22;1872;51.406;6.856;2023-04-07T16:02:21;10.30;99.90
3713;DHT22;1872;51.406;6.856;2023-04-07T16:04:47;10.30;99.90
3713;DHT22;1872;51.406;6.856;2023-04-07T16:07:13;10.30;99.90
3713;DHT22;1872;51.406;6.856;2023-04-07T16:09:38;10.30;99.90
3713;DHT22;1872;51.406;6.856;2023-04-07T16:12:04;10.30;99.90
3713;DHT22;1872;51.406;6.856;2023-04-07T16:14:30;10.20;99.90
3713;DHT22;1872;51.406;6.856;2023-04-07T16:16:56;10.20;99.90
3713;DHT22;1872;51.406;6.856;2023-04-07T16:19:26;10.30;99.90
3713;DHT22;1872;51.406;6.856;2023-04-07T16:21:52;10.30;99.90
3713;DHT22;1872;51.406;6.856;2023-04-07T16:24:19;10.30;99.90
3713;DHT22;1872;51.406;6.856;2023-04-07T16:26:45;10.30;99.90
3713;DHT22;1872;51.406;6.856;2023-04-07T16:29:15;10.30;99.90
3713;DHT22;1872;51.406;6.856;2023-04-07T16:31:41;10.30;99.90
3713;DHT22;1872;51.406;6.856;2023-04-07T16:34:11;10.30;99.90
3713;DHT22;1872;51.406;6.856;2023-04-07T16:36:37;10.30;99.90
3713;DHT22;1872;51.406;6.856;2023-04-07T16:39:03;10.30;99.90